createdAt,value
2018-07-16T00:01:14.727Z,16.700001
2018-07-16T00:06:16.977Z,16.6
2018-07-16T00:16:21.549Z,16.5
2018-07-16T00:21:23.931Z,16.5
2018-07-16T00:26:26.322Z,16.4
2018-07-16T00:31:28.492Z,16.4
2018-07-16T00:36:30.866Z,16.4
2018-07-16T00:41:33.208Z,16.299999
2018-07-16T00:46:35.542Z,16.299999
2018-07-16T00:51:37.616Z,16.299999
2018-07-16T00:56:39.957Z,16.200001
2018-07-16T01:01:42.412Z,16
2018-07-16T01:06:44.578Z,15.9
2018-07-16T01:11:46.915Z,15.8
2018-07-16T01:16:49.115Z,15.8
2018-07-16T01:21:51.490Z,15.8
2018-07-16T01:26:53.696Z,15.7
2018-07-16T01:31:56.054Z,15.7
2018-07-16T01:36:58.470Z,15.7
2018-07-16T01:42:00.662Z,15.6
2018-07-16T01:47:02.982Z,15.5
2018-07-16T01:52:05.234Z,15.4
2018-07-16T01:57:07.494Z,15.3
2018-07-16T02:02:09.787Z,15.2
2018-07-16T02:07:12.045Z,15.2
2018-07-16T02:12:14.394Z,15.1
2018-07-16T02:22:18.978Z,14.8
2018-07-16T02:27:21.349Z,14.7
2018-07-16T02:32:23.563Z,14.6
2018-07-16T02:37:25.860Z,14.4
2018-07-16T02:42:28.211Z,14.1
2018-07-16T02:47:30.399Z,14
2018-07-16T02:52:32.668Z,14
2018-07-16T02:57:35.024Z,14
2018-07-16T03:02:37.400Z,14.1
2018-07-16T03:07:39.636Z,14.3
2018-07-16T03:12:41.883Z,14.5
2018-07-16T03:17:44.207Z,14.5
2018-07-16T03:22:46.554Z,14.3
2018-07-16T03:27:48.756Z,14.2
2018-07-16T03:32:51.091Z,14.1
2018-07-16T03:37:53.367Z,14.2
2018-07-16T03:42:55.718Z,14.1
2018-07-16T03:47:58.118Z,14.1
2018-07-16T03:53:00.220Z,14
2018-07-16T03:58:02.709Z,13.8
2018-07-16T04:03:04.786Z,13.8
2018-07-16T04:08:07.087Z,13.9
2018-07-16T04:13:09.522Z,13.9
2018-07-16T04:18:11.784Z,14
2018-07-16T04:23:14.071Z,14.1
2018-07-16T04:28:16.375Z,14.1
2018-07-16T04:33:18.588Z,14.1
2018-07-16T04:38:20.897Z,14.2
2018-07-16T04:43:23.220Z,14.4
2018-07-16T04:48:25.507Z,14.7
2018-07-16T04:53:27.867Z,14.8
2018-07-16T04:58:30.011Z,15.1
2018-07-16T05:03:32.405Z,15.4
2018-07-16T05:08:34.639Z,15.7
2018-07-16T05:13:36.984Z,15.9
2018-07-16T05:18:39.364Z,16
2018-07-16T05:29:12.708Z,16.299999
2018-07-16T05:34:15.015Z,16.4
2018-07-16T05:39:17.402Z,16.6
2018-07-16T05:44:19.677Z,16.700001
2018-07-16T05:49:21.835Z,16.9
2018-07-16T05:54:24.121Z,17.200001
2018-07-16T05:59:26.608Z,17.4
2018-07-16T06:04:28.847Z,17.799999
2018-07-16T06:09:31.064Z,18.1
2018-07-16T06:14:33.409Z,18.6
2018-07-16T06:19:35.678Z,19
2018-07-16T06:24:37.958Z,19.5
2018-07-16T06:29:40.366Z,19.9
2018-07-16T06:34:42.646Z,20.299999
2018-07-16T06:39:45.068Z,20.799999
2018-07-16T06:44:47.150Z,21.200001
2018-07-16T06:49:49.479Z,21.6
2018-07-16T06:54:51.808Z,22
2018-07-16T06:59:54.020Z,22.6
2018-07-16T07:04:56.513Z,23.200001
2018-07-16T07:09:58.704Z,23.6
2018-07-16T07:15:00.961Z,23.9
2018-07-16T07:20:03.205Z,24.4
2018-07-16T07:25:05.591Z,24.799999
2018-07-16T07:30:07.812Z,25.299999
2018-07-16T07:35:10.143Z,25.9
2018-07-16T07:40:12.398Z,26.4
2018-07-16T07:45:14.724Z,26.9
2018-07-16T07:50:16.974Z,27.200001
2018-07-16T07:55:19.607Z,27.799999
2018-07-16T08:00:21.664Z,28.299999
2018-07-16T08:05:23.849Z,28.700001
2018-07-16T08:10:26.033Z,28.9
2018-07-16T08:15:28.375Z,29.299999
2018-07-16T08:20:30.773Z,29.4
2018-07-16T08:25:33.095Z,29.700001
2018-07-16T08:30:35.282Z,29.9
2018-07-16T08:35:37.629Z,30.200001
2018-07-16T08:40:39.848Z,29.9
2018-07-16T08:45:42.204Z,30.299999
2018-07-16T08:50:44.497Z,30.799999
2018-07-16T08:55:46.840Z,30.9
2018-07-16T09:00:49.165Z,31.799999
2018-07-16T09:05:51.322Z,32.400002
2018-07-16T09:10:53.792Z,32.400002
2018-07-16T09:15:55.887Z,32.299999
2018-07-16T09:20:58.209Z,31.700001
2018-07-16T09:26:00.567Z,31.1
2018-07-16T09:31:02.873Z,31.4
2018-07-16T09:36:05.097Z,32
2018-07-16T09:41:07.520Z,32.200001
2018-07-16T09:46:09.815Z,32.900002
2018-07-16T09:51:11.975Z,33.700001
2018-07-16T09:56:14.351Z,34.5
2018-07-16T10:01:16.564Z,35
2018-07-16T10:06:18.984Z,34.400002
2018-07-16T10:11:21.245Z,34.599998
2018-07-16T10:16:23.585Z,34.700001
2018-07-16T10:21:25.713Z,34.5
2018-07-16T10:26:28.117Z,34.799999
2018-07-16T10:31:30.288Z,35
2018-07-16T10:36:32.644Z,35.599998
2018-07-16T10:41:34.866Z,35.700001
2018-07-16T10:46:37.284Z,35.099998
2018-07-16T10:51:39.465Z,34.599998
2018-07-16T10:56:41.807Z,34.900002
2018-07-16T11:01:44.215Z,35.200001
2018-07-16T11:06:46.479Z,35.299999
2018-07-16T11:11:48.645Z,34.599998
2018-07-16T11:16:51.037Z,34.5
2018-07-16T11:21:53.345Z,34.5
2018-07-16T11:26:55.672Z,34.200001
2018-07-16T11:31:57.861Z,34
2018-07-16T11:37:00.313Z,33.400002
2018-07-16T11:42:02.451Z,33.5
2018-07-16T11:47:04.705Z,34.400002
2018-07-16T11:52:07.178Z,35.099998
2018-07-16T11:57:09.477Z,35.400002
2018-07-16T12:02:11.612Z,36.200001
2018-07-16T12:07:13.950Z,36.5
2018-07-16T12:12:16.213Z,37.200001
2018-07-16T12:17:18.654Z,36.099998
2018-07-16T12:22:20.816Z,35.599998
2018-07-16T12:27:23.213Z,36.200001
2018-07-16T12:32:25.440Z,36.400002
2018-07-16T12:37:27.873Z,36.799999
2018-07-16T12:42:29.988Z,36.799999
2018-07-16T12:47:32.428Z,36.700001
2018-07-16T12:52:34.711Z,37
2018-07-16T12:57:36.817Z,37
2018-07-16T13:02:39.204Z,37.200001
2018-07-16T13:07:41.538Z,37
2018-07-16T13:12:43.887Z,33.900002
2018-07-16T13:22:48.389Z,35.299999
2018-07-16T13:27:50.751Z,36.299999
2018-07-16T13:32:52.965Z,37
2018-07-16T13:37:55.251Z,37.700001
2018-07-16T13:42:57.469Z,37.400002
2018-07-16T13:47:59.838Z,36.900002
2018-07-16T13:53:02.187Z,35.700001
2018-07-16T13:58:04.476Z,34.400002
2018-07-16T14:03:06.789Z,32.599998
2018-07-16T14:08:08.961Z,31.4
2018-07-16T14:13:11.255Z,33.099998
2018-07-16T14:18:13.609Z,34.900002
2018-07-16T14:23:16.022Z,35.900002
2018-07-16T14:33:20.496Z,35.700001
2018-07-16T14:38:22.883Z,36.599998
2018-07-16T14:43:25.160Z,35.900002
2018-07-16T14:48:27.338Z,35
2018-07-16T14:53:29.667Z,33.5
2018-07-16T14:58:32.006Z,33.400002
2018-07-16T15:03:34.211Z,31.700001
2018-07-16T15:08:36.704Z,30.6
2018-07-16T15:13:38.851Z,30.299999
2018-07-16T15:18:41.170Z,30.4
2018-07-16T15:23:43.487Z,31.6
2018-07-16T15:28:45.810Z,32.599998
2018-07-16T15:33:48.024Z,33.200001
2018-07-16T15:38:50.281Z,33.200001
2018-07-16T15:43:52.679Z,33.099998
2018-07-16T15:48:54.882Z,33.400002
2018-07-16T15:53:57.136Z,33.700001
2018-07-16T15:58:59.634Z,32.599998
2018-07-16T16:04:01.870Z,32.099998
2018-07-16T16:09:04.161Z,31.4
2018-07-16T16:14:06.532Z,31.299999
2018-07-16T16:19:08.728Z,31.700001
2018-07-16T16:24:10.909Z,31.299999
2018-07-16T16:29:13.457Z,30.6
2018-07-16T16:34:15.627Z,30.200001
2018-07-16T16:39:17.814Z,30
2018-07-16T16:44:20.171Z,29.700001
2018-07-16T16:49:22.602Z,28.1
2018-07-16T16:54:24.905Z,27.1
2018-07-16T16:59:27.144Z,26.4
2018-07-16T17:04:29.324Z,25.6
2018-07-16T17:09:31.579Z,22.799999
2018-07-16T17:14:33.982Z,20.799999
2018-07-16T17:19:36.428Z,19.9
2018-07-16T17:24:38.407Z,19.200001
2018-07-16T17:29:40.883Z,18.700001
2018-07-16T17:34:43.133Z,18.5
2018-07-16T17:39:45.343Z,18.4
2018-07-16T17:44:47.802Z,18.5
2018-07-16T17:49:50.026Z,18.4
2018-07-16T17:54:52.281Z,18.4
2018-07-16T17:59:54.702Z,18.299999
2018-07-16T18:04:56.847Z,18.299999
2018-07-16T18:09:59.147Z,18.299999
2018-07-16T18:15:01.481Z,18.299999
2018-07-16T18:20:03.750Z,18.299999
2018-07-16T18:25:06.065Z,18.299999
2018-07-16T18:30:08.251Z,18.4
2018-07-16T18:35:10.904Z,18.200001
2018-07-16T18:40:12.889Z,18.200001
2018-07-16T18:45:15.221Z,18.200001
2018-07-16T18:50:17.593Z,18.1
2018-07-16T18:55:19.982Z,18
2018-07-16T19:00:22.064Z,18.1
2018-07-16T19:05:24.385Z,18
2018-07-16T19:10:26.720Z,17.799999
2018-07-16T19:15:29.127Z,17.700001
2018-07-16T19:20:31.363Z,17.700001
2018-07-16T19:25:33.549Z,17.700001
2018-07-16T19:30:35.900Z,17.700001
2018-07-16T19:35:38.233Z,17.6
2018-07-16T19:40:40.927Z,17.6
2018-07-16T19:45:42.846Z,17.5
2018-07-16T19:50:45.166Z,17.5
2018-07-16T19:55:47.375Z,17.6
2018-07-16T20:00:49.599Z,17.799999
2018-07-16T20:05:51.844Z,17.9
2018-07-16T20:10:54.398Z,17.9
2018-07-16T20:15:56.532Z,18
2018-07-16T20:20:58.837Z,18
2018-07-16T20:26:01.110Z,18.1
2018-07-16T20:31:03.354Z,18.1
2018-07-16T20:36:05.746Z,18.1
2018-07-16T20:41:07.945Z,18.1
2018-07-16T20:46:10.339Z,18.1
2018-07-16T20:51:12.595Z,18
2018-07-16T20:56:14.841Z,18
2018-07-16T21:01:17.186Z,18
2018-07-16T21:06:19.606Z,17.799999
2018-07-16T21:11:21.723Z,17.9
2018-07-16T21:16:24.061Z,17.9
2018-07-16T21:21:26.380Z,18
2018-07-16T21:26:28.707Z,18.1
2018-07-16T21:31:30.935Z,18.1
2018-07-16T21:36:33.441Z,18.1
2018-07-16T21:41:35.682Z,18.200001
2018-07-16T21:46:37.843Z,18.200001
2018-07-16T21:51:40.153Z,18.1
2018-07-16T21:56:42.509Z,18
2018-07-16T22:01:44.756Z,18
2018-07-16T22:06:47.015Z,18
2018-07-16T22:11:49.264Z,18
2018-07-16T22:16:51.747Z,17.9
2018-07-16T22:21:53.935Z,17.799999
2018-07-16T22:26:56.266Z,17.6
2018-07-16T22:31:58.601Z,17.5
2018-07-16T22:37:00.788Z,17.4
2018-07-16T22:42:03.057Z,17.4
2018-07-16T22:52:07.809Z,17.299999
2018-07-16T22:57:10.004Z,17.200001
2018-07-16T23:02:12.360Z,17.200001
2018-07-16T23:07:14.605Z,17.200001
2018-07-16T23:12:16.932Z,17.200001
2018-07-16T23:17:19.076Z,17.299999
2018-07-16T23:22:21.511Z,17.299999
2018-07-16T23:27:23.764Z,17.200001
2018-07-16T23:32:26.179Z,17.1
2018-07-16T23:37:28.297Z,17
2018-07-16T23:42:30.558Z,17
2018-07-16T23:47:32.984Z,16.9
2018-07-16T23:52:35.307Z,16.9
2018-07-16T23:57:37.567Z,16.9
